Tiempo atmosférico en la estación meteorológica de Candelaria, Santa Cruz de Tenerife (463 m.)



Fecha
DESCASC
Temp. máxima en grados centígrados (hora)
DESCASC
Temp. mínima en grados centígrados (hora)
DESCASC
Temp. media en grados centígrados
DESCASC
Racha de viento máxima en m/sg (hora)
DESCASC
Velocidad máxima media en intervalos de 10 minutos(hora)
DESCASC
Precipitaciones diarias en mm
DESCASC
Precipitaciones de 00:00 a 06:00 en mm
DESCASC
Precipitaciones de 06:00 a 12:00 en mm
DESCASC
Precipitaciones de 12:00 a 18:00 en mm
DESCASC
Precipitaciones de 18:00 a 24:00 en mm
DESCASC
23-05-2018 19 (16:20) 13.3 (22:20) 16.2 9.17 (23:50) 4.17 (10:30) 0 0 0 0 0
22-05-2018 20.9 (12:20) 10.9 (06:40) 15.9 5.83 (13:40) 3.61 (04:20) 0 0 0 0 0
21-05-2018 20.6 (13:20) 11.7 (07:00) 16.2 8.06 (16:30) 5.28 (16:30) 0 0 0 0 0
20-05-2018 22.4 (14:20) 11.5 (00:00) 16.9 10.56 (15:20) 6.94 (15:10) 0 0 0 0 0
19-05-2018 20.9 (16:50) 10.9 (06:50) 15.9 8.61 (17:30) 5.28 (18:00) 0 0 0 0 0
18-05-2018 21.3 (15:00) 12 (00:00) 16.6 11.67 (15:40) 6.67 (15:40) 0 0 0 0 0
17-05-2018 22 (16:00) 11.7 (00:00) 16.8 9.17 (17:00) 6.11 (17:00) 0 0 0 0 0
16-05-2018 22 (12:10) 13.9 (00:00) 17.9 20.56 (13:00) 10.83 (13:00) 0 0 0 0 0
15-05-2018 23.7 (17:50) 13.5 (00:00) 18.6 10.28 (12:20) 6.39 (13:00) 0 0 0 0 0
14-05-2018 19.9 (15:30) 12.1 (00:00) 16 9.72 (11:10) 5.83 (11:10) 0 0 0 0 0
13-05-2018 19 (15:50) 12.4 (00:00) 15.7 10.83 (09:40) 6.39 (11:00) 0 0 0 0 0
12-05-2018 19.9 (17:30) 12.7 (00:00) 16.3 12.22 (10:00) 7.78 (13:50) 0 0 0 0 0
11-05-2018 20.1 (18:10) 11.2 (06:00) 15.7 10.56 (15:00) 6.67 (12:10) 0 0 0 0 0
10-05-2018 22.3 (14:10) 12.6 (00:00) 17.4 12.22 (12:40) 7.5 (12:00) 0 0 0 0 0
09-05-2018 22.3 (12:50) 11.8 (00:00) 17 10.56 (15:30) 6.39 (13:50) 0 0 0 0 0
08-05-2018 21.6 (14:40) 11.7 (00:00) 16.7 14.44 (21:30) 8.61 (18:10) 0 0 0 0 0
07-05-2018 18.6 (12:00) 11.6 (00:00) 15.1 8.89 (14:00) 4.44 (14:00) 0 0 0 0 0
06-05-2018 18.7 (12:40) 11.4 (00:00) 15.1 6.67 (12:40) 3.89 (13:10) 1 0 0 1 0
05-05-2018 19.1 (14:50) 11.1 (00:00) 15.1 13.89 (14:00) 6.67 (14:10) 0 0 0 0 0
04-05-2018 20.7 (16:20) 11.6 (00:00) 16.2 12.78 (14:00) 7.78 (12:30) 0 0 0 0 0
03-05-2018 22.1 (13:50) 11.7 (00:00) 16.9 15.83 (21:10) 10.83 (18:40) 0 0 0 0 0
02-05-2018 18.5 (12:50) 12 (00:00) 15.3 8.06 (13:00) 5 (13:00) 0 0 0 0 0
01-05-2018 23.4 (16:10) 11.7 (05:40) 17.5 11.11 (18:30) 6.67 (18:30) 0 0 0 0 0
30-04-2018 20 (14:40) 10.3 (00:00) 15.2 15.83 (14:00) 8.89 (12:00) 0 0 0 0 0
29-04-2018 18 (14:40) 10.5 (00:00) 14.3 11.67 (16:50) 8.06 (12:10) 0 0 0 0 0
28-04-2018 22.7 (12:50) 14.1 (00:00) 18.4 17.22 (19:20) 11.39 (20:10) 0 0 0 0 0

Gráficas

Temp. máximas Temp. mínimas Temp. medias Precipitaciones Rachas de viento máximas Velocidades máximas media en intervalos de 10 minutos

Datos horarios

Fecha y hora oficial Temperatura (ºC) Velocidad del viento (km/h) Dirección del viento Racha (km/h) Dirección de racha Precipitación (mm) Presión (hPa) Tendencia (hPa) Humedad (%)
2018-05-27 23:00:00 -- -- -- -- -- -- -- -- --
2018-05-27 22:00:00 -- -- -- -- -- -- -- -- --
2018-05-27 21:00:00 15.9 25 Noroeste 44 Noroeste 0 -- -- 61
2018-05-27 20:00:00 17.3 11 Sudoeste 33 Norte 0 -- -- 63
2018-05-27 19:00:00 18.5 17 Norte 45 Norte 0 -- -- 54
2018-05-27 18:00:00 18.7 13 Oeste 33 Oeste 0 -- -- 58
2018-05-27 17:00:00 19.9 17 Oeste 31 Oeste 0 -- -- 55
2018-05-27 16:00:00 20.5 19 Oeste 33 Sur 0 -- -- 55
2018-05-27 15:00:00 20.8 21 Sudoeste 35 Sur 0 -- -- 52
2018-05-27 14:00:00 20.2 17 Sudoeste 37 Oeste 0 -- -- 52
2018-05-27 13:00:00 21.9 22 Oeste 44 Oeste 0 -- -- 48
2018-05-27 12:00:00 21.9 8 Sudoeste 22 Sudoeste 0 -- -- 41
2018-05-27 11:00:00 20.4 10 Sudoeste 40 Norte 0 -- -- 45
2018-05-27 10:00:00 19.4 8 Sudoeste 24 Nordeste 0 -- -- 50
2018-05-27 09:00:00 18 12 Este 23 Oeste 0 -- -- 58
2018-05-27 08:00:00 15.5 10 Norte 30 Norte 0 -- -- 62
2018-05-27 07:00:00 12.3 9 Norte 15 Nordeste 0 -- -- 75
2018-05-27 06:00:00 13.4 7 Noroeste 16 Noroeste 0 -- -- 69
2018-05-27 05:00:00 12.9 0 Calma 14 Norte 0 -- -- 71
2018-05-27 04:00:00 14.2 5 Noroeste 41 Noroeste 0 -- -- 68
2018-05-27 03:00:00 14.4 9 Noroeste 39 Norte 0 -- -- 72
2018-05-27 02:00:00 15.1 22 Norte 40 Norte 0 -- -- 61
2018-05-27 01:00:00 14 6 Noroeste 15 Oeste 0 -- -- 71
2018-05-27 00:00:00 14.3 6 Noroeste 13 Noroeste 0 -- -- 72
2018-05-26 23:00:00 15.2 13 Oeste 18 Sudoeste 0 -- -- 69
2018-05-26 22:00:00 16 9 Oeste 25 Norte 0 -- -- 65
2018-05-26 21:00:00 16.5 4 Oeste 14 Este 0 -- -- 62
2018-05-26 20:00:00 17.7 4 Sudeste 31 Sudoeste 0 -- -- 62
2018-05-26 19:00:00 18.8 6 Sur 56 Norte 0 -- -- 56
2018-05-26 18:00:00 19.2 27 Norte 57 Norte 0 -- -- 52
2018-05-26 17:00:00 20.6 28 Norte 54 Norte 0 -- -- 45
2018-05-26 16:00:00 20.7 32 Norte 60 Norte 0 -- -- 44
2018-05-26 15:00:00 20.8 30 Norte 65 Norte 0 -- -- 39
2018-05-26 14:00:00 20.9 36 Norte 59 Norte 0 -- -- 37
2018-05-26 13:00:00 20.3 33 Norte 56 Norte 0 -- -- 38
2018-05-26 12:00:00 19.7 30 Norte 59 Noroeste 0 -- -- 40
2018-05-26 11:00:00 19.1 28 Noroeste 59 Norte 0 -- -- 43
2018-05-26 10:00:00 17.7 33 Norte 55 Norte 0 -- -- 50
2018-05-26 09:00:00 16.6 17 Norte 42 Noroeste 0 -- -- 59
2018-05-26 08:00:00 15.1 9 Noroeste 41 Norte 0 -- -- 71
2018-05-26 07:00:00 14.6 9 Noroeste 20 Noroeste 0 -- -- 70
2018-05-26 06:00:00 14.1 8 Noroeste 28 Oeste 0 -- -- 78
2018-05-26 05:00:00 14.7 2 Sudeste 17 Oeste 0 -- -- 69
2018-05-26 04:00:00 15.2 8 Sur 21 Sudeste 0 -- -- 76
2018-05-26 03:00:00 14.9 4 Noroeste 12 Noroeste 0 -- -- 75
2018-05-26 02:00:00 14.6 7 Norte 12 Norte 0 -- -- 77
2018-05-26 01:00:00 14.8 2 Noroeste 11 Este 0 -- -- 76
2018-05-26 00:00:00 15 3 Sudeste 10 Norte 0 -- -- 75
2018-05-25 23:00:00 15 7 Noroeste 20 Oeste 0 -- -- 74
2018-05-25 22:00:00 15.9 11 Oeste 30 Norte 0 -- -- 65
2018-05-25 21:00:00 17 14 Noroeste 47 Norte 0 -- -- 58
2018-05-25 20:00:00 16.5 32 Norte 55 Norte 0 -- -- 58
2018-05-25 19:00:00 17.8 41 Norte 64 Norte 0 -- -- 56
2018-05-25 18:00:00 19.1 37 Norte 65 Norte 0 -- -- 51
2018-05-25 17:00:00 20.6 31 Norte 55 Norte 0 -- -- 46
2018-05-25 16:00:00 21.6 26 Norte 56 Noroeste 0 -- -- 42
2018-05-25 15:00:00 21.4 27 Norte 53 Norte 0 -- -- 42
2018-05-25 14:00:00 20.8 31 Norte 58 Norte 0 -- -- 44
2018-05-25 13:00:00 22.2 19 Noroeste 56 Noroeste 0 -- -- 42
2018-05-25 12:00:00 21.8 9 Oeste 42 Noroeste 0 -- -- 42
2018-05-25 11:00:00 20.1 17 Nordeste 38 Norte 0 -- -- 50
2018-05-25 10:00:00 19.5 10 Sur 18 Sur 0 -- -- 55
2018-05-25 09:00:00 17.5 8 Sudeste 14 Sudeste 0 -- -- 61
2018-05-25 08:00:00 13.3 7 Noroeste 14 Norte 0 -- -- 75
2018-05-25 07:00:00 13 7 Noroeste 12 Noroeste 0 -- -- 77
2018-05-25 06:00:00 13.8 2 Nordeste 27 Noroeste 0 -- -- 73
2018-05-25 05:00:00 13.6 7 Noroeste 18 Norte 0 -- -- 72
2018-05-25 04:00:00 13.9 7 Nordeste 19 Norte 0 -- -- 72
2018-05-25 03:00:00 13.9 4 Oeste 14 Este 0 -- -- 78
2018-05-25 02:00:00 13.5 4 Nordeste 9 Nordeste 0 -- -- 80
2018-05-25 01:00:00 13.6 3 Nordeste 13 Norte 0 -- -- 76
2018-05-25 00:00:00 14.2 6 Oeste 12 Norte 0 -- -- 76
2018-05-24 23:00:00 14.6 5 Norte 13 Sur 0 -- -- 77
2018-05-24 22:00:00 15.4 6 Sur 15 Sudeste 0 -- -- 77
2018-05-24 21:00:00 15.6 4 Sudeste 10 Sudoeste 0 -- -- 73
2018-05-24 20:00:00 16.2 7 Sudoeste 15 Sudoeste 0 -- -- 71
2018-05-24 19:00:00 16.9 7 Sur 13 Sudeste 0 -- -- 66
2018-05-24 18:00:00 17.8 3 Sur 18 Sudeste 0 -- -- 66
2018-05-24 17:00:00 17.7 10 Sudeste 19 Sudeste 0 -- -- 67
2018-05-24 16:00:00 18.8 9 Sudeste 19 Sudeste 0 -- -- 62
2018-05-24 15:00:00 18.5 13 Este 22 Sudeste 0 -- -- 62
2018-05-24 14:00:00 18.9 11 Sur 23 Sur 0 -- -- 58
2018-05-24 13:00:00 18.8 11 Sudeste 18 Sudeste 0 -- -- 56
2018-05-24 12:00:00 18.2 6 Oeste 14 Sudeste 0 -- -- 62
2018-05-24 11:00:00 18 10 Sudeste 19 Sudeste 0 -- -- 64
2018-05-24 10:00:00 17 8 Sudeste 16 Sudeste 0 -- -- 68
2018-05-24 09:00:00 17.3 7 Sudoeste 14 Sudoeste 0 -- -- 63
2018-05-24 08:00:00 14.2 5 Norte 10 Nordeste 0 -- -- 76
2018-05-24 07:00:00 12.3 6 Norte 12 Norte 0 -- -- 80
2018-05-24 06:00:00 12.5 7 Norte 14 Norte 0 -- -- 76
2018-05-24 05:00:00 12.2 13 Norte 14 Norte 0 -- -- 74
2018-05-24 04:00:00 11.9 3 Nordeste 6 Nordeste 0 -- -- 73
2018-05-24 03:00:00 13.9 3 Nordeste 31 Noroeste 0 -- -- 64
2018-05-24 02:00:00 14.5 14 Noroeste 28 Noroeste 0 -- -- 57
2018-05-24 01:00:00 14.3 2 Noroeste 12 Norte 0 -- -- 70
2018-05-24 00:00:00 14.9 12 Noroeste 33 Norte 0 -- -- 65
2018-05-23 23:00:00 13.9 7 Norte 12 Este 0 -- -- 72
2018-05-23 22:00:00 13.6 9 Noroeste 12 Noroeste 0 -- -- 81
2018-05-23 21:00:00 14.7 9 Noroeste 30 Norte 0 -- -- 78
2018-05-23 20:00:00 15.6 5 Sur 22 Nordeste 0 -- -- 77
2018-05-23 19:00:00 15.7 7 Sudeste 18 Sudeste 0 -- -- 77
2018-05-23 18:00:00 16.4 14 Sudeste 21 Sudeste 0 -- -- 72
2018-05-23 17:00:00 18.8 6 Sudoeste 16 Sudoeste 0 -- -- 63
2018-05-23 16:00:00 17.8 8 Sudoeste 21 Sur 0 -- -- 69
2018-05-23 15:00:00 17.3 12 Sudoeste 18 Sur 0 -- -- 70
2018-05-23 14:00:00 17.4 8 Sudoeste 20 Sudoeste 0 -- -- 71
2018-05-23 13:00:00 17.3 12 Sudoeste 19 Sudoeste 0 -- -- 69
2018-05-23 12:00:00 16.4 5 Sudoeste 19 Sur 0 -- -- 76
2018-05-23 11:00:00 16.2 13 Sur 22 Este 0 -- -- 78
2018-05-23 10:00:00 17.1 5 Sudeste 13 Sudeste 0 -- -- 73
2018-05-23 09:00:00 16.5 6 Este 11 Este 0 -- -- 76
2018-05-23 08:00:00 14.8 3 Noroeste 6 Oeste 0 -- -- 84
2018-05-23 07:00:00 14.6 3 Nordeste 9 Noroeste 0 -- -- 86
2018-05-23 06:00:00 14.7 6 Oeste 9 Oeste 0 -- -- 87
2018-05-23 05:00:00 15.1 2 Sudeste 6 Sudeste 0 -- -- 90
2018-05-23 04:00:00 15.1 3 Este 9 Nordeste 0 -- -- 88
2018-05-23 03:00:00 14.5 6 Norte 9 Norte 0 -- -- 82
2018-05-23 02:00:00 14.9 3 Norte 8 Norte 0 -- -- 89
2018-05-23 01:00:00 14.6 6 Nordeste 10 Norte 0 -- -- 82
2018-05-23 00:00:00 14.6 3 Este 8 Nordeste 0 -- -- 86
2018-05-22 23:00:00 15.4 3 Sudoeste 9 Sur 0 -- -- 89
2018-05-22 22:00:00 15.9 3 Sudoeste 12 Sur 0 -- -- 88
2018-05-22 21:00:00 16.2 5 Sur 10 Sudeste 0 -- -- 86
2018-05-22 20:00:00 17.3 8 Sudeste 14 Sudeste 0 -- -- 72
2018-05-22 19:00:00 17.9 3 Sudeste 16 Sudeste 0 -- -- 69
2018-05-22 18:00:00 19.1 8 Sudeste 18 Sur 0 -- -- 63
2018-05-22 17:00:00 19.9 8 Sudeste 14 Sudeste 0 -- -- 58
2018-05-22 16:00:00 19.4 7 Sudeste 17 Sudeste 0 -- -- 60
2018-05-22 15:00:00 20 8 Sudeste 17 Sudeste 0 -- -- 59
2018-05-22 14:00:00 20.4 12 Sur 21 Sudeste 0 -- -- 59
2018-05-22 13:00:00 20.1 10 Sudeste 18 Sur 0 -- -- 59
2018-05-22 12:00:00 19.8 9 Sur 17 Sudeste 0 -- -- 59
2018-05-22 11:00:00 19.8 8 Sur 18 Sudeste 0 -- -- 56
2018-05-22 10:00:00 19.4 8 Sur 15 Sudoeste 0 -- -- 55
2018-05-22 09:00:00 18.1 6 Sudoeste 10 Sudoeste 0 -- -- 58
2018-05-22 08:00:00 14.3 6 Norte 12 Norte 0 -- -- 70
2018-05-22 07:00:00 11.2 11 Norte 13 Norte 0 -- -- 80
2018-05-22 06:00:00 11.3 9 Norte 15 Norte 0 -- -- 82
2018-05-22 05:00:00 11.3 11 Norte 15 Norte 0 -- -- 82
2018-05-22 04:00:00 11.6 11 Norte 14 Norte 0 -- -- 80
2018-05-22 03:00:00 12.2 11 Norte 14 Norte 0 -- -- 81
2018-05-22 02:00:00 13 5 Norte 10 Norte 0 -- -- 81
2018-05-22 01:00:00 13 9 Norte 10 Norte 0 -- -- 78
2018-05-22 00:00:00 13.9 4 Norte 6 Norte 0 -- -- 77
2018-05-21 23:00:00 14.9 2 Este 6 Nordeste 0 -- -- 80
2018-05-21 22:00:00 14.3 3 Nordeste 6 Nordeste 0 -- -- 78
2018-05-21 21:00:00 15.2 2 Sudeste 8 Sudeste 0 -- -- 75
2018-05-21 20:00:00 16.2 6 Sur 14 Sur 0 -- -- 71
2018-05-21 19:00:00 18 8 Sudoeste 17 Sudoeste 0 -- -- 63
2018-05-21 18:00:00 18.2 8 Sur 23 Sudoeste 0 -- -- 62
2018-05-21 17:00:00 19.5 12 Sudoeste 29 Sur 0 -- -- 57
2018-05-21 16:00:00 20.4 13 Sur 22 Sur 0 -- -- 54
2018-05-21 15:00:00 19.8 13 Sudeste 28 Sur 0 -- -- 53
2018-05-21 14:00:00 20.2 16 Sudoeste 28 Sudoeste 0 -- -- 52
2018-05-21 13:00:00 19.7 15 Sudoeste 23 Sur 0 -- -- 53
2018-05-21 12:00:00 18.9 6 Sur 16 Sur 0 -- -- 55
2018-05-21 11:00:00 18 11 Sudeste 20 Sur 0 -- -- 60
2018-05-21 10:00:00 18.8 8 Sudeste 16 Sudeste 0 -- -- 55
2018-05-21 09:00:00 17 7 Sudeste 12 Sudeste 0 -- -- 63
2018-05-21 08:00:00 12.1 9 Norte 14 Norte 0 -- -- 75
2018-05-21 07:00:00 11.7 10 Norte 13 Norte 0 -- -- 73
2018-05-21 06:00:00 12.3 8 Norte 13 Norte 0 -- -- 71
2018-05-21 05:00:00 12.9 11 Norte 17 Norte 0 -- -- 68
2018-05-21 04:00:00 12.7 14 Norte 17 Norte 0 -- -- 67
2018-05-21 03:00:00 13.4 9 Norte 13 Norte 0 -- -- 65
2018-05-21 02:00:00 14.3 10 Norte 18 Norte 0 -- -- 63
2018-05-21 01:00:00 14.3 10 Norte 16 Norte 0 -- -- 60
2018-05-21 00:00:00 14.9 4 Este 8 Sudeste 0 -- -- 73
2018-05-20 23:00:00 15.1 2 Este 8 Sudeste 0 -- -- 72
2018-05-20 22:00:00 15.1 5 Este 11 Sudeste 0 -- -- 70
2018-05-20 21:00:00 16 10 Este 32 Norte 0 -- -- 66
2018-05-20 20:00:00 16.9 12 Noroeste 33 Oeste 0 -- -- 62
2018-05-20 19:00:00 18.4 12 Sudeste 24 Sudeste 0 -- -- 56
2018-05-20 18:00:00 20.1 11 Sur 23 Sudeste 0 -- -- 50
2018-05-20 17:00:00 20 13 Sudoeste 35 Sudoeste 0 -- -- 51
2018-05-20 16:00:00 20.5 21 Oeste 38 Sudoeste 0 -- -- 50
2018-05-20 15:00:00 21.2 22 Oeste 37 Oeste 0 -- -- 48
2018-05-20 14:00:00 21.9 17 Sudoeste 29 Oeste 0 -- -- 46
2018-05-20 13:00:00 21.6 12 Sudoeste 33 Sur 0 -- -- 48
2018-05-20 12:00:00 20.5 14 Sur 27 Sudeste 0 -- -- 49
2018-05-20 11:00:00 19.4 13 Sudoeste 24 Sudoeste 0 -- -- 51
2018-05-20 10:00:00 18.6 9 Sudoeste 15 Sur 0 -- -- 49
2018-05-20 09:00:00 17.2 6 Sudoeste 12 Sur 0 -- -- 55
2018-05-20 08:00:00 13.5 8 Norte 14 Norte 0 -- -- 69
2018-05-20 07:00:00 11.8 9 Norte 15 Oeste 0 -- -- 75
2018-05-20 06:00:00 12.9 10 Noroeste 18 Noroeste 0 -- -- 73
2018-05-20 05:00:00 12.7 9 Noroeste 17 Noroeste 0 -- -- 71
2018-05-20 04:00:00 12.1 8 Norte 13 Norte 0 -- -- 74
2018-05-20 03:00:00 12.3 7 Norte 13 Norte 0 -- -- 73
2018-05-20 02:00:00 12.9 9 Norte 14 Norte 0 -- -- 76
2018-05-20 01:00:00 13.4 6 Nordeste 12 Este 0 -- -- 78
2018-05-20 00:00:00 13.8 9 Nordeste 13 Nordeste 0 -- -- 76
2018-05-19 23:00:00 14.1 5 Nordeste 17 Norte 0 -- -- 71
2018-05-19 22:00:00 14.3 6 Noroeste 15 Oeste 0 -- -- 73
2018-05-19 21:00:00 15.4 6 Oeste 23 Noroeste 0 -- -- 70
2018-05-19 20:00:00 16.4 12 Sudoeste 27 Sudoeste 0 -- -- 67
2018-05-19 19:00:00 18.2 18 Oeste 27 Sudoeste 0 -- -- 63
2018-05-19 18:00:00 19.2 19 Oeste 31 Oeste 0 -- -- 61
2018-05-19 17:00:00 20.7 17 Oeste 26 Oeste 0 -- -- 55
2018-05-19 16:00:00 18.5 7 Oeste 30 Sudoeste 0 -- -- 62
2018-05-19 15:00:00 19.6 14 Sudoeste 31 Sudoeste 0 -- -- 57
2018-05-19 14:00:00 20.3 11 Oeste 26 Oeste 0 -- -- 54
2018-05-19 13:00:00 19 17 Oeste 27 Oeste 0 -- -- 59
2018-05-19 12:00:00 18.3 11 Noroeste 25 Oeste 0 -- -- 61
2018-05-19 11:00:00 19.2 7 Sudoeste 18 Sudoeste 0 -- -- 56
2018-05-19 10:00:00 18.2 7 Sur 15 Sur 0 -- -- 61
2018-05-19 09:00:00 17.6 6 Sudoeste 10 Sudoeste 0 -- -- 62
2018-05-19 08:00:00 14.3 6 Norte 12 Norte 0 -- -- 72
2018-05-19 07:00:00 10.9 6 Norte 11 Norte 0 -- -- 78
2018-05-19 06:00:00 11.5 7 Noroeste 12 Norte 0 -- -- 79
2018-05-19 05:00:00 11.3 9 Norte 12 Norte 0 -- -- 72
2018-05-19 04:00:00 11.8 6 Noroeste 10 Norte 0 -- -- 73
2018-05-19 03:00:00 11.8 6 Norte 9 Noroeste 0 -- -- 69
2018-05-19 02:00:00 12.5 6 Noroeste 10 Norte 0 -- -- 67
2018-05-19 01:00:00 12.7 6 Noroeste 13 Norte 0 -- -- 70
2018-05-19 00:00:00 13.5 9 Noroeste 19 Noroeste 0 -- -- 68
2018-05-18 23:00:00 14.3 9 Oeste 15 Oeste 0 -- -- 70
2018-05-18 22:00:00 14.7 8 Noroeste 15 Noroeste 0 -- -- 65
2018-05-18 21:00:00 15.4 11 Oeste 19 Oeste 0 -- -- 67
2018-05-18 20:00:00 16.5 14 Noroeste 28 Oeste 0 -- -- 64
2018-05-18 19:00:00 18.1 18 Oeste 30 Oeste 0 -- -- 62
2018-05-18 18:00:00 19.8 18 Oeste 34 Oeste 0 -- -- 53
2018-05-18 17:00:00 20.7 13 Sudoeste 30 Oeste 0 -- -- 51
2018-05-18 16:00:00 19 21 Oeste 42 Oeste 0 -- -- 58
2018-05-18 15:00:00 21.3 16 Oeste 35 Sudoeste 0 -- -- 51
2018-05-18 14:00:00 20.9 13 Sudoeste 25 Sudoeste 0 -- -- 50
2018-05-18 13:00:00 19.1 13 Sudoeste 21 Sudoeste 0 -- -- 56
2018-05-18 12:00:00 17.8 4 Sur 17 Sur 0 -- -- 61
2018-05-18 11:00:00 17.1 9 Sur 19 Sudoeste 0 -- -- 64
2018-05-18 10:00:00 18.3 10 Sudeste 18 Sudeste 0 -- -- 61
2018-05-18 09:00:00 17.1 7 Sur 12 Sur 0 -- -- 63
2018-05-18 08:00:00 14.7 5 Norte 15 Norte 0 -- -- 69
2018-05-18 07:00:00 12.4 13 Norte 14 Norte 0 -- -- 78
2018-05-18 06:00:00 13.8 2 Noroeste 8 Noroeste 0 -- -- 75
2018-05-18 05:00:00 14.2 3 Norte 10 Noroeste 0 -- -- 75
2018-05-18 04:00:00 14 4 Norte 10 Norte 0 -- -- 77
2018-05-18 03:00:00 14 5 Nordeste 12 Nordeste 0 -- -- 80
2018-05-18 02:00:00 13.2 9 Norte 12 Norte 0 -- -- 80
2018-05-18 01:00:00 13.9 6 Nordeste 13 Este 0 -- -- 81
2018-05-18 00:00:00 14.2 5 Nordeste 10 Nordeste 0 -- -- 77
2018-05-17 23:00:00 14.1 9 Norte 13 Norte 0 -- -- 78
2018-05-17 22:00:00 14.9 2 Sudoeste 12 Sur 0 -- -- 76
2018-05-17 21:00:00 15.9 3 Sudeste 19 Sudeste 0 -- -- 74
2018-05-17 20:00:00 17.5 6 Sur 17 Sudoeste 0 -- -- 65
2018-05-17 19:00:00 18.9 13 Sudoeste 26 Sudoeste 0 -- -- 61
2018-05-17 18:00:00 19.1 15 Sudoeste 30 Oeste 0 -- -- 60
2018-05-17 17:00:00 20.4 22 Oeste 33 Oeste 0 -- -- 55
2018-05-17 16:00:00 22 16 Oeste 31 Sudoeste 0 -- -- 51
2018-05-17 15:00:00 21.4 14 Sur 30 Sur 0 -- -- 52
2018-05-17 14:00:00 20.7 12 Sudeste 22 Sur 0 -- -- 50
2018-05-17 13:00:00 20.8 12 Sur 23 Sudeste 0 -- -- 51
2018-05-17 12:00:00 20.6 13 Sur 22 Sur 0 -- -- 52
2018-05-17 11:00:00 19.8 10 Sur 20 Sur 0 -- -- 55
2018-05-17 10:00:00 18.2 6 Sur 15 Sudoeste 0 -- -- 59
2018-05-17 09:00:00 17.6 5 Sur 9 Sudoeste 0 -- -- 62
2018-05-17 08:00:00 13.7 7 Norte 13 Norte 0 -- -- 72
2018-05-17 07:00:00 12.1 8 Nordeste 13 Norte 0 -- -- 80
2018-05-17 06:00:00 12 4 Noroeste 12 Norte 0 -- -- 82
2018-05-17 05:00:00 12.4 5 Noroeste 12 Norte 0 -- -- 81
2018-05-17 04:00:00 13.3 5 Nordeste 17 Norte 0 -- -- 80
2018-05-17 03:00:00 12.9 5 Norte 9 Norte 0 -- -- 81
2018-05-17 02:00:00 13.9 0 Calma 12 Noroeste 0 -- -- 79
2018-05-17 01:00:00 14.3 6 Nordeste 12 Nordeste 0 -- -- 77
2018-05-17 00:00:00 14.8 7 Nordeste 15 Nordeste 0 -- -- 74
2018-05-16 23:00:00 15 10 Nordeste 14 Nordeste 0 -- -- 72
2018-05-16 22:00:00 15.9 8 Nordeste 47 Noroeste 0 -- -- 69
2018-05-16 21:00:00 16.5 26 Noroeste 49 Norte 0 -- -- 55
2018-05-16 20:00:00 17.5 28 Norte 51 Norte 0 -- -- 52
2018-05-16 19:00:00 19.9 9 Sudoeste 19 Sudoeste 0 -- -- 54
2018-05-16 18:00:00 21.4 11 Sudoeste 26 Noroeste 0 -- -- 51
2018-05-16 17:00:00 20.3 8 Sudeste 31 Sur 0 -- -- 55
2018-05-16 16:00:00 20.8 18 Noroeste 58 Norte 0 -- -- 51
2018-05-16 15:00:00 21 26 Noroeste 59 Norte 0 -- -- 49
2018-05-16 14:00:00 20.6 16 Noroeste 60 Norte 0 -- -- 49
2018-05-16 13:00:00 19.8 39 Norte 74 Norte 0 -- -- 50
2018-05-16 12:00:00 21.9 14 Noroeste 45 Norte 0 -- -- 46
2018-05-16 11:00:00 20.8 15 Sudoeste 35 Noroeste 0 -- -- 52
2018-05-16 10:00:00 19.1 14 Sudoeste 29 Noroeste 0 -- -- 55
2018-05-16 09:00:00 17.4 14 Oeste 29 Noroeste 0 -- -- 61
2018-05-16 08:00:00 16.1 20 Noroeste 40 Noroeste 0 -- -- 55
2018-05-16 07:00:00 15.1 9 Norte 47 Norte 0 -- -- 63
2018-05-16 06:00:00 14.9 7 Norte 19 Norte 0 -- -- 64
2018-05-16 05:00:00 14.1 10 Norte 38 Noroeste 0 -- -- 73
2018-05-16 04:00:00 14.9 18 Noroeste 39 Norte 0 -- -- 68
2018-05-16 03:00:00 14.9 17 Noroeste 47 Norte 0 -- -- 73
2018-05-16 02:00:00 14.1 7 Norte 14 Nordeste 0 -- -- 79
2018-05-16 01:00:00 14.3 5 Nordeste 10 Nordeste 0 -- -- 79
2018-05-16 00:00:00 14.6 5 Sur 12 Sudeste 0 -- -- 80
2018-05-15 23:00:00 15.2 5 Oeste 22 Oeste 0 -- -- 75
2018-05-15 22:00:00 16.2 12 Oeste 22 Noroeste 0 -- -- 66
2018-05-15 21:00:00 17.5 16 Noroeste 23 Oeste 0 -- -- 57
2018-05-15 20:00:00 19.9 15 Oeste 21 Oeste 0 -- -- 43
2018-05-15 19:00:00 22.2 12 Oeste 26 Noroeste 0 -- -- 37
2018-05-15 18:00:00 23.1 10 Sur 25 Sudoeste 0 -- -- 39
2018-05-15 17:00:00 22.9 15 Oeste 31 Sudoeste 0 -- -- 44
2018-05-15 16:00:00 22.6 13 Sudoeste 31 Sudoeste 0 -- -- 45
2018-05-15 15:00:00 22.1 15 Sur 32 Oeste 0 -- -- 48
2018-05-15 14:00:00 21.1 17 Sur 33 Noroeste 0 -- -- 51
2018-05-15 13:00:00 20.2 23 Sudeste 37 Sudeste 0 -- -- 57
2018-05-15 12:00:00 20.3 21 Sudeste 37 Sudeste 0 -- -- 53
2018-05-15 11:00:00 18.9 18 Sudeste 30 Sudeste 0 -- -- 65
2018-05-15 10:00:00 19.4 9 Sur 18 Noroeste 0 -- -- 55
2018-05-15 09:00:00 17.1 12 Oeste 24 Oeste 0 -- -- 61
2018-05-15 08:00:00 16.1 5 Oeste 14 Norte 0 -- -- 40
2018-05-15 07:00:00 13.5 8 Noroeste 13 Norte 0 -- -- 38
2018-05-15 06:00:00 13.7 11 Norte 19 Oeste 0 -- -- 36
2018-05-15 05:00:00 14.5 10 Noroeste 13 Noroeste 0 -- -- 36
2018-05-15 04:00:00 14.1 10 Noroeste 14 Noroeste 0 -- -- 35
2018-05-15 03:00:00 14.1 11 Noroeste 14 Norte 0 -- -- 36
2018-05-15 02:00:00 14.2 10 Noroeste 17 Noroeste 0 -- -- 38
2018-05-15 01:00:00 14.2 14 Noroeste 17 Noroeste 0 -- -- 42
2018-05-15 00:00:00 14.3 8 Noroeste 13 Noroeste 0 -- -- 50
2018-05-14 23:00:00 14.2 10 Norte 14 Noroeste 0 -- -- 64
2018-05-14 22:00:00 15.1 10 Noroeste 17 Noroeste 0 -- -- 65
2018-05-14 21:00:00 15.6 9 Noroeste 25 Oeste 0 -- -- 65
2018-05-14 20:00:00 16.6 17 Oeste 27 Oeste 0 -- -- 64
2018-05-14 19:00:00 18.9 17 Oeste 23 Oeste 0 -- -- 58
2018-05-14 18:00:00 18.5 8 Sur 24 Este 0 -- -- 59
2018-05-14 17:00:00 19.4 14 Sudeste 25 Sudeste 0 -- -- 56
2018-05-14 16:00:00 19.5 14 Sudeste 29 Sudeste 0 -- -- 56
2018-05-14 15:00:00 19.5 20 Sudeste 32 Sudeste 0 -- -- 54
2018-05-14 14:00:00 19.3 14 Sudeste 30 Sudeste 0 -- -- 58
2018-05-14 13:00:00 19.3 18 Sudeste 35 Sudeste 0 -- -- 55
2018-05-14 12:00:00 18.5 18 Sudeste 35 Sudeste 0 -- -- 58
2018-05-14 11:00:00 18.8 15 Sur 35 Sudeste 0 -- -- 52
2018-05-14 10:00:00 17.8 9 Sudoeste 23 Oeste 0 -- -- 55
2018-05-14 09:00:00 15.8 12 Oeste 22 Oeste 0 -- -- 60
2018-05-14 08:00:00 13.8 13 Noroeste 19 Noroeste 0 -- -- 66
2018-05-14 07:00:00 12.2 14 Noroeste 20 Noroeste 0 -- -- 71
2018-05-14 06:00:00 12.3 12 Noroeste 20 Noroeste 0 -- -- 67
2018-05-14 05:00:00 12.4 16 Noroeste 27 Oeste 0 -- -- 75
2018-05-14 04:00:00 12.3 10 Noroeste 15 Noroeste 0 -- -- 70
2018-05-14 03:00:00 12.6 9 Noroeste 20 Noroeste 0 -- -- 74
2018-05-14 02:00:00 12.6 14 Noroeste 23 Noroeste 0 -- -- 73
2018-05-14 01:00:00 12.9 10 Noroeste 21 Noroeste 0 -- -- 71
2018-05-14 00:00:00 13.3 16 Noroeste 22 Noroeste 0 -- -- 74
2018-05-11 19:00:00 -- -- -- -- -- -- -- -- --
2018-05-11 18:00:00 -- -- -- -- -- -- -- -- --
2018-05-11 17:00:00 18.7 19 Sudeste 30 Sudeste 0 -- -- 63
2018-05-11 16:00:00 19.1 15 Sudeste 37 Sudeste 0 -- -- 62
2018-05-11 15:00:00 18.6 21 Sudeste 38 Este 0 -- -- 65
2018-05-11 14:00:00 18.4 21 Sudeste 36 Sudeste 0 -- -- 66
2018-05-11 13:00:00 19.1 19 Sudeste 34 Sudeste 0 -- -- 59
2018-05-11 12:00:00 18.9 20 Sudeste 36 Este 0 -- -- 58
2018-05-11 11:00:00 18.6 24 Sudeste 35 Sudeste 0 -- -- 56
2018-05-11 10:00:00 17.8 13 Sur 23 Sur 0 -- -- 60
2018-05-11 09:00:00 16.1 14 Oeste 20 Oeste 0 -- -- 66
2018-05-11 08:00:00 14 12 Noroeste 21 Noroeste 0 -- -- 72
2018-05-11 07:00:00 11.9 12 Noroeste 17 Noroeste 0 -- -- 80
2018-05-11 06:00:00 11.2 10 Norte 12 Norte 0 -- -- 85
2018-05-11 05:00:00 11.6 7 Norte 11 Norte 0 -- -- 85
2018-05-11 04:00:00 12.7 8 Norte 9 Noroeste 0 -- -- 87
2018-05-11 03:00:00 12.4 4 Norte 17 Este 0 -- -- 86
2018-05-11 02:00:00 13.8 12 Nordeste 18 Este 0 -- -- 83
2018-05-11 01:00:00 13.5 9 Nordeste 13 Norte 0 -- -- 84
2018-05-11 00:00:00 14.1 5 Este 12 Sur 0 -- -- 82
2018-05-10 23:00:00 14.8 7 Oeste 17 Oeste 0 -- -- 80
2018-05-10 22:00:00 15.4 12 Oeste 20 Oeste 0 -- -- 78
2018-05-10 21:00:00 15.7 13 Oeste 21 Oeste 0 -- -- 78
2018-05-10 20:00:00 16.4 14 Oeste 24 Oeste 0 -- -- 75
2018-05-10 19:00:00 17.7 16 Oeste 28 Oeste 0 -- -- 72
2018-05-10 18:00:00 -- 14 Oeste 32 Oeste 0 -- -- --
2018-05-10 17:00:00 19.5 15 Oeste 33 Oeste 0 -- -- 67
2018-05-10 16:00:00 19 16 Noroeste 27 Noroeste 0 -- -- 67
2018-05-10 15:00:00 22.2 14 Sudoeste 35 Oeste 0 -- -- 53
2018-05-10 14:00:00 21.7 16 Oeste 33 Sudeste 0 -- -- 51
2018-05-10 13:00:00 20.2 21 Sudeste 44 Sudeste 0 -- -- 53
2018-05-10 12:00:00 20.7 27 Sudeste 39 Sudeste 0 -- -- 50
2018-05-10 11:00:00 19.7 15 Sudeste 33 Sudeste 0 -- -- 54
2018-05-10 10:00:00 18.7 9 Oeste 18 Oeste 0 -- -- 59
2018-05-10 09:00:00 17.1 6 Sudoeste 18 Noroeste 0 -- -- 65
2018-05-10 08:00:00 14 12 Noroeste 19 Noroeste 0 -- -- 77
2018-05-10 07:00:00 12.6 9 Noroeste 19 Oeste 0 -- -- 84
2018-05-10 06:00:00 13.2 13 Noroeste 24 Noroeste 0 -- -- 82
2018-05-10 05:00:00 13.3 13 Noroeste 23 Noroeste 0 -- -- 81
2018-05-10 04:00:00 13.7 12 Noroeste 26 Oeste 0 -- -- 80
2018-05-10 03:00:00 13.6 11 Noroeste 19 Noroeste 0 -- -- 80
2018-05-10 02:00:00 14.1 10 Noroeste 19 Noroeste 0 -- -- 80
2018-05-10 01:00:00 14.4 11 Noroeste 24 Oeste 0 -- -- 79
2018-05-10 00:00:00 14.9 12 Noroeste 22 Oeste 0 -- -- 78
2018-05-09 23:00:00 15.1 13 Noroeste 23 Oeste 0 -- -- 77
2018-05-09 22:00:00 15.7 12 Oeste 22 Noroeste 0 -- -- 73
2018-05-09 21:00:00 16.4 13 Oeste 24 Oeste 0 -- -- 70
2018-05-09 20:00:00 17.6 18 Oeste 32 Oeste 0 -- -- 64
2018-05-09 19:00:00 20.5 12 Sudoeste 24 Sudoeste 0 -- -- 53
2018-05-09 18:00:00 22 13 Oeste 21 Sur 0 -- -- 50
2018-05-09 17:00:00 21.8 10 Sudoeste 30 Noroeste 0 -- -- 52
2018-05-09 16:00:00 20.6 13 Oeste 38 Sur 0 -- -- 58
2018-05-09 15:00:00 19.3 14 Sur 38 Sudeste 0 -- -- 59
2018-05-09 14:00:00 21.4 20 Sudeste 37 Sudeste 0 -- -- 50
2018-05-09 13:00:00 22.1 10 Sudeste 27 Sur 0 -- -- 48
2018-05-09 12:00:00 21.3 8 Sudoeste 22 Sudeste 0 -- -- 52
2018-05-09 11:00:00 19.8 11 Sur 18 Sudoeste 0 -- -- 57
2018-05-09 10:00:00 18.7 6 Sudoeste 14 Sur 0 -- -- 59
2018-05-09 09:00:00 17.4 9 Sudeste 13 Sudeste 0 -- -- 62
2018-05-09 08:00:00 14.2 6 Norte 13 Norte 0 -- -- 72
2018-05-09 07:00:00 12 11 Norte 13 Norte 0 -- -- 80
2018-05-09 06:00:00 12 11 Norte 17 Noroeste 0 -- -- 81
2018-05-09 05:00:00 12.7 8 Norte 13 Norte 0 -- -- 76
2018-05-09 04:00:00 13 12 Norte 15 Noroeste 0 -- -- 82
2018-05-09 03:00:00 13.3 0 Calma 11 Norte 0 -- -- 84
2018-05-09 02:00:00 14.2 4 Noroeste 22 Noroeste 0 -- -- 81
2018-05-09 01:00:00 14.4 8 Nordeste 21 Nordeste 0 -- -- 82
2018-05-09 00:00:00 14.9 9 Noroeste 33 Noroeste 0 -- -- 80
2018-05-08 23:00:00 14.9 8 Nordeste 27 Noroeste 0 -- -- 78
2018-05-08 22:00:00 16 6 Nordeste 52 Noroeste 0 -- -- 66
2018-05-08 21:00:00 16.5 26 Norte 45 Norte 0 -- -- 70
2018-05-08 20:00:00 17 10 Oeste 45 Norte 0 -- -- 67
2018-05-08 19:00:00 18.4 23 Nordeste 50 Norte 0 -- -- 55
2018-05-08 18:00:00 19.9 16 Noroeste 43 Norte 0 -- -- 50
2018-05-08 17:00:00 20.1 17 Sudoeste 30 Oeste 0 -- -- 59
2018-05-08 16:00:00 21 19 Oeste 38 Oeste 0 -- -- 57
2018-05-08 15:00:00 21.1 18 Sudoeste 33 Sudoeste 0 -- -- 56
2018-05-08 14:00:00 21.4 18 Oeste 36 Sudoeste 0 -- -- 53
2018-05-08 13:00:00 20.8 12 Oeste 26 Sudoeste 0 -- -- 54
2018-05-08 12:00:00 20.8 16 Sudeste 32 Sudeste 0 -- -- 53
2018-05-08 11:00:00 20.1 10 Noroeste 23 Sudoeste 0 -- -- 54
2018-05-08 10:00:00 18.4 6 Sur 12 Sudeste 0 -- -- 58
2018-05-08 09:00:00 14.4 4 Oeste 13 Noroeste 0 -- -- 68
2018-05-08 08:00:00 13.1 9 Noroeste 21 Norte 0 -- -- 73
2018-05-08 07:00:00 12.1 7 Norte 13 Norte 0 -- -- 77
2018-05-08 06:00:00 12.6 5 Noroeste 17 Norte 0 -- -- 77
2018-05-08 05:00:00 13.8 9 Noroeste 17 Noroeste 0 -- -- 68
2018-05-08 04:00:00 13 8 Noroeste 14 Norte 0 -- -- 73
2018-05-08 03:00:00 13.1 9 Norte 15 Norte 0 -- -- 74
2018-05-08 02:00:00 12.9 8 Noroeste 14 Norte 0 -- -- 80
2018-05-08 01:00:00 12.6 8 Norte 11 Norte 0 -- -- 78
2018-05-08 00:00:00 13.6 3 Este 12 Nordeste 0 -- -- 75
2018-05-07 23:00:00 13.4 4 Noroeste 15 Noroeste 0 -- -- 79
2018-05-07 22:00:00 13.9 5 Noroeste 15 Sudoeste 0 -- -- 76
2018-05-07 21:00:00 14.9 6 Sur 26 Sur 0 -- -- 70
2018-05-07 20:00:00 16 5 Oeste 17 Sudoeste 0 -- -- 69
2018-05-07 19:00:00 17 9 Sudoeste 23 Sudoeste 0 -- -- 66
2018-05-07 18:00:00 17.8 6 Sudoeste 17 Oeste 0 -- -- 65
2018-05-07 17:00:00 17.3 12 Oeste 22 Oeste 0 -- -- 68
2018-05-07 16:00:00 17.2 15 Oeste 21 Noroeste 0 -- -- 68
2018-05-07 15:00:00 17.1 10 Oeste 22 Sudeste 0 -- -- 68
2018-05-07 14:00:00 16.4 16 Sudeste 32 Este 0 -- -- 75
2018-05-07 13:00:00 16.6 10 Sur 24 Sudeste 0 -- -- 74
2018-05-07 12:00:00 18.6 7 Sudoeste 13 Oeste 0 -- -- 59
2018-05-07 11:00:00 16.3 3 Sur 14 Sudeste 0 -- -- 71
2018-05-07 10:00:00 16.3 5 Sudeste 12 Sudeste 0 -- -- 71
2018-05-07 09:00:00 16.6 7 Sudeste 13 Este 0 -- -- 67
2018-05-07 08:00:00 12.8 6 Nordeste 18 Oeste 0 -- -- 68
2018-05-07 07:00:00 13.1 11 Noroeste 20 Noroeste 0 -- -- 68
2018-05-07 06:00:00 13 2 Nordeste 10 Norte 0 -- -- 82
2018-05-07 05:00:00 12.5 7 Norte 14 Norte 0 -- -- 82
2018-05-07 04:00:00 12.5 9 Norte 14 Norte 0 -- -- 79
2018-05-07 03:00:00 12.8 3 Nordeste 12 Noroeste 0 -- -- 75
2018-05-07 02:00:00 11.9 7 Noroeste 11 Noroeste 0 -- -- 79
2018-05-07 01:00:00 11.8 8 Norte 10 Norte 0 -- -- 81
2018-05-07 00:00:00 12.7 7 Norte 13 Norte 0 -- -- 80
2018-05-06 23:00:00 13.5 4 Nordeste 6 Norte 0 -- -- 86
2018-05-06 22:00:00 14.3 2 Sudoeste 6 Sur 0 -- -- 82
2018-05-06 21:00:00 14.6 3 Sur 8 Sudeste 0 -- -- 81
2018-05-06 20:00:00 15.2 4 Sudeste 10 Sudeste 0 -- -- 76
2018-05-06 19:00:00 15.9 5 Sudeste 13 Sur 0 -- -- 72
2018-05-06 18:00:00 17.3 4 Sudoeste 14 Sudoeste 0 -- -- 66
2018-05-06 17:00:00 15.8 10 Sudoeste 15 Sudoeste 0 -- -- 78
2018-05-06 16:00:00 14.6 5 Noroeste 9 Noroeste 0.8 -- -- 81
2018-05-06 15:00:00 14.2 5 Nordeste 17 Sudeste 0.2 -- -- 85
2018-05-06 14:00:00 15.9 10 Sur 23 Sudeste 0 -- -- 69
2018-05-06 13:00:00 17.3 13 Sudeste 24 Sur 0 -- -- 63
2018-05-06 12:00:00 17.8 7 Sudoeste 18 Sudoeste 0 -- -- 62
2018-05-06 11:00:00 18.4 12 Sur 19 Sur 0 -- -- 59
2018-05-06 10:00:00 15.4 7 Sudeste 13 Sudeste 0 -- -- 71
2018-05-06 09:00:00 14.4 3 Sudeste 8 Sudeste 0 -- -- 75
2018-05-06 08:00:00 13.2 0 Calma 9 Nordeste 0 -- -- 78
2018-05-06 07:00:00 13 5 Nordeste 10 Nordeste 0 -- -- 75
2018-05-06 06:00:00 12.1 8 Noroeste 19 Norte 0 -- -- 76
2018-05-06 05:00:00 11.4 9 Norte 17 Norte 0 -- -- 77
2018-05-06 04:00:00 11.9 8 Noroeste 15 Norte 0 -- -- 75
2018-05-06 03:00:00 12.6 10 Norte 13 Norte 0 -- -- 73
2018-05-06 02:00:00 12.4 8 Norte 12 Norte 0 -- -- 76
2018-05-06 01:00:00 13 8 Norte 14 Norte 0 -- -- 72
2018-05-06 00:00:00 12.9 8 Norte 15 Norte 0 -- -- 74
2018-05-05 23:00:00 12.9 11 Norte 16 Norte 0 -- -- 75
2018-05-05 22:00:00 13.1 9 Norte 16 Norte 0 -- -- 75
2018-05-05 21:00:00 13.9 4 Este 12 Norte 0 -- -- 73
2018-05-05 20:00:00 14.9 4 Sur 16 Sudoeste 0 -- -- 70
2018-05-05 19:00:00 15.8 9 Sudoeste 22 Sudoeste 0 -- -- 67
2018-05-05 18:00:00 16.4 13 Sudoeste 30 Sudoeste 0 -- -- 66
2018-05-05 17:00:00 17.6 14 Sudoeste 29 Oeste 0 -- -- 61
2018-05-05 16:00:00 17.7 17 Sudoeste 26 Sudoeste 0 -- -- 57
2018-05-05 15:00:00 18.5 9 Sur 37 Norte 0 -- -- 51
2018-05-05 14:00:00 17.6 23 Norte 50 Norte 0 -- -- 50
2018-05-05 13:00:00 17.1 6 Noroeste 17 Oeste 0 -- -- 57
2018-05-05 12:00:00 16.4 12 Oeste 32 Norte 0 -- -- 59
2018-05-05 11:00:00 16.4 8 Sur 22 Sudoeste 0 -- -- 59
2018-05-05 10:00:00 16.7 6 Sur 20 Oeste 0 -- -- 59
2018-05-05 09:00:00 16.3 10 Oeste 18 Sudoeste 0 -- -- 64
2018-05-05 08:00:00 12.4 4 Nordeste 12 Nordeste 0 -- -- 76
2018-05-05 07:00:00 12 6 Norte 13 Norte 0 -- -- 78
2018-05-05 06:00:00 11.7 4 Norte 16 Norte 0 -- -- 81
2018-05-05 05:00:00 11.4 13 Norte 17 Norte 0 -- -- 77
2018-05-05 04:00:00 11.7 7 Noroeste 12 Norte 0 -- -- 80
2018-05-05 03:00:00 12.4 6 Nordeste 14 Norte 0 -- -- 75
2018-05-05 02:00:00 13 10 Nordeste 17 Norte 0 -- -- 74
2018-05-05 01:00:00 12.8 10 Norte 13 Norte 0 -- -- 76
2018-05-05 00:00:00 12.9 7 Norte 14 Norte 0 -- -- 77
2018-05-04 23:00:00 13.2 10 Noroeste 14 Norte 0 -- -- 78
2018-05-04 22:00:00 14.4 9 Noroeste 20 Oeste 0 -- -- 75
2018-05-04 21:00:00 14.8 9 Noroeste 25 Noroeste 0 -- -- 73
2018-05-04 20:00:00 15.8 15 Noroeste 27 Oeste 0 -- -- 70
2018-05-04 19:00:00 17.6 18 Oeste 32 Oeste 0 -- -- 63
2018-05-04 18:00:00 19.3 17 Oeste 33 Oeste 0 -- -- 59
2018-05-04 17:00:00 19.7 13 Sur 28 Sur 0 -- -- 58
2018-05-04 16:00:00 20.3 8 Sur 35 Sudeste 0 -- -- 58
2018-05-04 15:00:00 19.8 19 Sudoeste 35 Sudoeste 0 -- -- 56
2018-05-04 14:00:00 19.1 20 Sudeste 46 Sudeste 0 -- -- 60
2018-05-04 13:00:00 19.7 28 Sudeste 44 Sudeste 0 -- -- 55
2018-05-04 12:00:00 19.5 25 Sudeste 42 Sudeste 0 -- -- 59
2018-05-04 11:00:00 18 23 Sudeste 42 Sudeste 0 -- -- 58
2018-05-04 10:00:00 17 8 Oeste 16 Sudoeste 0 -- -- 65
2018-05-04 09:00:00 14.9 6 Oeste 19 Norte 0 -- -- 68
2018-05-04 08:00:00 12.3 13 Norte 16 Norte 0 -- -- 70
2018-05-04 07:00:00 12.1 15 Norte 18 Norte 0 -- -- 67
2018-05-04 06:00:00 11.7 12 Noroeste 18 Noroeste 0 -- -- 68
2018-05-04 05:00:00 12 9 Noroeste 15 Noroeste 0 -- -- 74
2018-05-04 04:00:00 12.3 12 Noroeste 15 Norte 0 -- -- 72
2018-05-04 03:00:00 12.6 13 Norte 16 Norte 0 -- -- 73
2018-05-04 02:00:00 13.6 8 Noroeste 18 Noroeste 0 -- -- 78
2018-05-04 01:00:00 14.4 6 Este 13 Sudeste 0 -- -- 78
2018-05-04 00:00:00 14.3 7 Nordeste 10 Nordeste 0 -- -- 78
2018-05-03 23:00:00 14.9 9 Norte 19 Noroeste 0 -- -- 77
2018-05-03 22:00:00 15.5 8 Norte 57 Norte 0 -- -- 67
2018-05-03 21:00:00 15.8 26 Noroeste 46 Norte 0 -- -- 61
2018-05-03 20:00:00 16.4 27 Norte 51 Norte 0 -- -- 59
2018-05-03 19:00:00 17.4 21 Norte 57 Norte 0 -- -- 56
2018-05-03 18:00:00 17.5 28 Norte 51 Norte 0 -- -- 58
2018-05-03 17:00:00 20.4 27 Norte 56 Norte 0 -- -- 44
2018-05-03 16:00:00 19.7 32 Norte 48 Norte 0 -- -- 46
2018-05-03 15:00:00 21.1 12 Oeste 27 Sur 0 -- -- 46
2018-05-03 14:00:00 21.5 14 Norte 32 Nordeste 0 -- -- 45
2018-05-03 13:00:00 20.8 7 Sudoeste 31 Sur 0 -- -- 50
2018-05-03 12:00:00 21.2 11 Sudeste 32 Sur 0 -- -- 51
2018-05-03 11:00:00 18.8 6 Oeste 14 Noroeste 0 -- -- 61
2018-05-03 10:00:00 16.9 9 Sur 13 Sur 0 -- -- 68
2018-05-03 09:00:00 15 5 Este 10 Nordeste 0 -- -- 76
2018-05-03 08:00:00 12.8 6 Norte 12 Norte 0 -- -- 81
2018-05-03 07:00:00 12.6 2 Norte 12 Norte 0 -- -- 82
2018-05-03 06:00:00 11.9 2 Este 10 Norte 0 -- -- 86
2018-05-03 05:00:00 12.4 3 Este 11 Este 0 -- -- 81
2018-05-03 04:00:00 12.8 7 Oeste 15 Noroeste 0 -- -- 75
2018-05-03 03:00:00 12 2 Norte 11 Norte 0 -- -- 80
2018-05-03 02:00:00 12.2 6 Nordeste 9 Norte 0 -- -- 82
2018-05-03 01:00:00 12.4 4 Norte 12 Norte 0 -- -- 79
2018-05-03 00:00:00 13.3 10 Noroeste 13 Noroeste 0 -- -- 78
2018-05-02 23:00:00 14.2 0 Calma 9 Sudeste 0 -- -- 87
2018-05-02 22:00:00 14.6 6 Sudeste 12 Sudeste 0 -- -- 90
2018-05-02 21:00:00 14.9 0 Calma 7 Sur 0 -- -- 84
2018-05-02 20:00:00 15.3 4 Sur 13 Sudeste 0 -- -- 84
2018-05-02 19:00:00 15.8 7 Sur 14 Sudeste 0 -- -- 81
2018-05-02 18:00:00 15.9 8 Este 14 Sudeste 0 -- -- 81
2018-05-02 17:00:00 15.4 7 Sudeste 13 Sur 0 -- -- 84
2018-05-02 16:00:00 16.5 5 Sur 9 Sur 0 -- -- 77
2018-05-02 15:00:00 15.8 7 Sudeste 23 Sur 0 -- -- 77
2018-05-02 14:00:00 17 11 Sur 24 Sudeste 0 -- -- 69
2018-05-02 13:00:00 18.3 18 Sudeste 29 Sudeste 0 -- -- 63
2018-05-02 12:00:00 18 7 Sudoeste 17 Sudeste 0 -- -- 64
2018-05-02 11:00:00 17.9 9 Sudeste 19 Sur 0 -- -- 62
2018-05-02 10:00:00 17.5 7 Sur 13 Sur 0 -- -- 62
2018-05-02 09:00:00 16.6 5 Sudeste 12 Sudeste 0 -- -- 66
2018-05-02 08:00:00 12.8 6 Nordeste 13 Noroeste 0 -- -- 80
2018-05-02 07:00:00 12.1 7 Norte 14 Norte 0 -- -- 81
2018-05-02 06:00:00 12.3 8 Norte 15 Norte 0 -- -- 79
2018-05-02 05:00:00 12 8 Norte 15 Este 0 -- -- 84
2018-05-02 04:00:00 12.4 6 Nordeste 15 Este 0 -- -- 81
2018-05-02 03:00:00 12.8 11 Este 16 Nordeste 0 -- -- 79
2018-05-02 02:00:00 12.7 9 Nordeste 13 Nordeste 0 -- -- 78
2018-05-02 01:00:00 13 3 Noroeste 13 Nordeste 0 -- -- 76
2018-05-02 00:00:00 13.2 8 Nordeste 15 Oeste 0 -- -- 77
2018-05-01 23:00:00 14 13 Oeste 23 Oeste 0 -- -- 74
2018-05-01 22:00:00 14.6 14 Oeste 23 Oeste 0 -- -- 70
2018-05-01 21:00:00 15.1 17 Oeste 26 Oeste 0 -- -- 66
2018-05-01 20:00:00 17.2 10 Oeste 34 Noroeste 0 -- -- 56
2018-05-01 19:00:00 19.4 21 Norte 40 Norte 0 -- -- 43
2018-05-01 18:00:00 21.7 12 Noroeste 29 Noroeste 0 -- -- 36
2018-05-01 17:00:00 21.9 15 Sudoeste 28 Sur 0 -- -- 38
2018-05-01 16:00:00 22.8 11 Sudoeste 31 Oeste 0 -- -- 37
2018-05-01 15:00:00 22.7 14 Oeste 33 Sur 0 -- -- 40
2018-05-01 14:00:00 22.2 17 Sudoeste 32 Sudoeste 0 -- -- 40
2018-05-01 13:00:00 21.6 13 Sudoeste 25 Sur 0 -- -- 41
2018-05-01 12:00:00 20.2 12 Sudoeste 26 Sudoeste 0 -- -- 45
2018-05-01 11:00:00 19.1 12 Sudoeste 22 Sudoeste 0 -- -- 47
2018-05-01 10:00:00 17.9 8 Sur 15 Sur 0 -- -- 49
2018-05-01 09:00:00 16.3 9 Oeste 17 Oeste 0 -- -- 54
2018-05-01 08:00:00 13.3 7 Noroeste 18 Noroeste 0 -- -- 61
2018-05-01 07:00:00 12.3 5 Norte 25 Noroeste 0 -- -- 64
2018-05-01 06:00:00 12.3 10 Noroeste 34 Noroeste 0 -- -- 65
2018-05-01 05:00:00 12.2 11 Norte 39 Norte 0 -- -- 66
2018-05-01 04:00:00 12.8 15 Noroeste 28 Noroeste 0 -- -- 61
2018-05-01 03:00:00 12.4 10 Noroeste 24 Noroeste 0 -- -- 68
2018-05-01 02:00:00 12.7 8 Nordeste 13 Nordeste 0 -- -- 69
2018-05-01 01:00:00 12.7 6 Noroeste 16 Norte 0 -- -- 66
2018-05-01 00:00:00 13.2 7 Noroeste 21 Noroeste 0 -- -- 61
2018-04-30 23:00:00 13.4 4 Norte 15 Norte 0 -- -- 64
2018-04-30 22:00:00 13.4 6 Norte 10 Nordeste 0 -- -- 63
2018-04-30 21:00:00 14.1 6 Oeste 21 Oeste 0 -- -- 62
2018-04-30 20:00:00 15.3 9 Noroeste 32 Norte 0 -- -- 56
2018-04-30 19:00:00 17.2 13 Noroeste 49 Norte 0 -- -- 49
2018-04-30 18:00:00 17.1 28 Norte 51 Norte 0 -- -- 47
2018-04-30 17:00:00 17.5 18 Noroeste 33 Sudeste 0 -- -- 56
2018-04-30 16:00:00 15.9 21 Sudeste 49 Sudeste 0 -- -- 63
2018-04-30 15:00:00 19.8 16 Sudoeste 49 Sudeste 0 -- -- 47
2018-04-30 14:00:00 19.5 30 Sudeste 57 Sudeste 0 -- -- 42
2018-04-30 13:00:00 19.2 22 Este 48 Sudeste 0 -- -- 39
2018-04-30 12:00:00 18.3 32 Norte 49 Norte 0 -- -- 40
2018-04-30 11:00:00 18 12 Norte 37 Noroeste 0 -- -- 39
2018-04-30 10:00:00 16.7 17 Sudoeste 50 Oeste 0 -- -- 48
2018-04-30 09:00:00 15.1 5 Sur 20 Oeste 0 -- -- 55
2018-04-30 08:00:00 11.3 6 Nordeste 14 Norte 0 -- -- 68
2018-04-30 07:00:00 10.7 9 Norte 13 Norte 0 -- -- 70
2018-04-30 06:00:00 11.2 9 Norte 18 Noroeste 0 -- -- 66
2018-04-30 05:00:00 11.5 7 Nordeste 22 Noroeste 0 -- -- 64
2018-04-30 04:00:00 10.9 7 Norte 19 Oeste 0 -- -- 65
2018-04-30 03:00:00 12 15 Noroeste 22 Oeste 0 -- -- 65
2018-04-30 02:00:00 11.7 9 Noroeste 21 Noroeste 0 -- -- 61
2018-04-30 01:00:00 11.7 8 Nordeste 18 Norte 0 -- -- 61
2018-04-30 00:00:00 11.8 5 Norte 20 Norte 0 -- -- 63
2018-04-29 23:00:00 12.5 8 Noroeste 17 Noroeste 0 -- -- 68
2018-04-29 22:00:00 13.2 13 Noroeste 21 Norte 0 -- -- 65
2018-04-29 21:00:00 13.7 8 Noroeste 22 Noroeste 0 -- -- 58
2018-04-29 20:00:00 15 13 Noroeste 27 Oeste 0 -- -- 59
2018-04-29 19:00:00 16.9 13 Oeste 29 Sudoeste 0 -- -- 53
2018-04-29 18:00:00 17.2 16 Sudoeste 37 Sur 0 -- -- 53
2018-04-29 17:00:00 16.7 20 Sur 42 Sur 0 -- -- 55
2018-04-29 16:00:00 18 20 Sudeste 36 Sudeste 0 -- -- 54
2018-04-29 15:00:00 17.6 21 Sudeste 36 Sudeste 0 -- -- 51
2018-04-29 14:00:00 17.7 23 Sudeste 38 Sudeste 0 -- -- 52
2018-04-29 13:00:00 16.9 27 Sudeste 41 Este 0 -- -- 52
2018-04-29 12:00:00 17.5 26 Este 39 Sudeste 0 -- -- 52
2018-04-29 11:00:00 15.2 23 Sudeste 34 Sudeste 0 -- -- 65
2018-04-29 10:00:00 15.7 17 Sudeste 39 Sudeste 0 -- -- 52
2018-04-29 09:00:00 14.6 3 Sur 11 Noroeste 0 -- -- 61
2018-04-29 08:00:00 11.1 8 Norte 13 Norte 0 -- -- 72
2018-04-29 07:00:00 10.5 5 Norte 13 Noroeste 0 -- -- 78
2018-04-29 06:00:00 11.9 11 Noroeste 28 Noroeste 0 -- -- 74
2018-04-29 05:00:00 12.1 15 Noroeste 26 Noroeste 0 -- -- 75
2018-04-29 04:00:00 12.7 13 Noroeste 26 Noroeste 0 -- -- 77
2018-04-29 03:00:00 13.1 12 Noroeste 28 Noroeste 0 -- -- 76
2018-04-29 02:00:00 13.7 13 Oeste 30 Este 0 -- -- 77
2018-04-29 01:00:00 14 10 Este 30 Este 0 -- -- 77
2018-04-29 00:00:00 14.6 9 Sur 20 Noroeste 0 -- -- 79
2018-04-28 23:00:00 15.7 4 Nordeste 36 Norte 0 -- -- 56
2018-04-28 22:00:00 16.5 24 Norte 52 Norte 0 -- -- 56
2018-04-28 21:00:00 16.1 33 Norte 58 Norte 0 -- -- 54
2018-04-28 20:00:00 16.5 40 Norte 62 Norte 0 -- -- 55
2018-04-28 19:00:00 19.8 9 Noroeste 26 Noroeste 0 -- -- 53
2018-04-28 18:00:00 20.4 12 Sudeste 26 Sudeste 0 -- -- 55
2018-04-28 17:00:00 21.4 14 Sur 29 Sur 0 -- -- 51
2018-04-28 16:00:00 21.2 19 Sudoeste 33 Sudoeste 0 -- -- 52
2018-04-28 15:00:00 22.1 20 Sudoeste 36 Sudoeste 0 -- -- 50
2018-04-28 14:00:00 22.6 22 Sudoeste 30 Sudoeste 0 -- -- 45
2018-04-28 13:00:00 22.5 18 Sudoeste 31 Sudoeste 0 -- -- 42
2018-04-28 12:00:00 21.6 14 Sudoeste 27 Sudoeste 0 -- -- 41
2018-04-28 11:00:00 20.6 17 Sudoeste 24 Sudoeste 0 -- -- 45
2018-04-28 10:00:00 20.1 8 Sur 15 Sudeste 0 -- -- 37
2018-04-28 09:00:00 18.9 9 Este 17 Sudeste 0 -- -- 33
2018-04-28 08:00:00 16.2 2 Norte 14 Nordeste 0 -- -- 28
2018-04-28 07:00:00 16.4 8 Nordeste 14 Este 0 -- -- 23
2018-04-28 06:00:00 15.4 3 Nordeste 18 Noroeste 0 -- -- 28
2018-04-28 05:00:00 14.7 12 Noroeste 18 Noroeste 0 -- -- 37
2018-04-28 04:00:00 14.5 5 Norte 19 Noroeste 0 -- -- 38
2018-04-28 03:00:00 15.9 13 Noroeste 17 Noroeste 0 -- -- 40
2018-04-28 02:00:00 16.2 11 Noroeste 17 Noroeste 0 -- -- 42
2018-04-28 01:00:00 15.2 8 Noroeste 13 Norte 0 -- -- 46
2018-04-28 00:00:00 15.1 7 Norte 13 Noroeste 0 -- -- 48